Ogdensburg, New Jersey
Current Conditions -  °F | °C
As of 10:53 PM on Sunday 21 Dec 2014 (Local Time) from KFWN Reporting Station
Overcast Overcast  
Wind Chill: 25°   Ceiling: 3200
Heat Index: 31°   Visibility: 9mi
Dew Point: 26°   Wind: 6mph
Humidity: 82%   Direction: 40°NE
Pressure: 30.33"   Gusts: NA
Location:  41.08°N, 74.59°W
Report Text: KFWN 220353Z AUTO 04005KT 9SM OVC032 M01/M03 A3033 RMK AO2 SNB43E53 SLP275 P0000 T10061033
Loading
Personal Weather Stations






























Interactive Weather Map New forecast layout! Learn more

10-Day Weather Forecast

Advertisements
Track Severe Weather on mobile